Terminal Aerodrome Forecast
Issued by NWS Charleston, WV

Current Version | Previous Version | Graphics & Text | Print | Product List | Glossary On
Versions: 1 2 3 4 5 6 7 8 9 10 11 12 13 14 15 16 17 18 19 20 21
000
FTUS41 KRLX 020300 AAA
TAFCRW
TAF AMD
KCRW 020317Z 0203/0224 17006KT 1SM -RA BR OVC005
      TEMPO 0203/0207 2SM -RA BR BKN009
     FM021000 30004KT 6SM BR OVC015
     FM021400 30005KT P6SM BKN025
     FM021900 33005KT P6SM SCT018=

USA.gov is the U.S. government's official web portal to all federal, state and local government web resources and services.